| Date | Time | Temp. (oF) | Dew Point (oF) | Rel. Hum. (%) | Press. (in.) | Wind Dir. | Wind Speed (mph) | Hourly Rainfall (in.) |
|
|---|---|---|---|---|---|---|---|---|---|
| 1 | 11/26 | 00:00 | 20 | 16 | 86 | 30.36 | SW | 0 | 0.00 |
| 2 | 11/25 | 23:00 | 21 | 16 | 82 | 30.36 | SW | 0 | 0.00 |
| 3 | 11/25 | 22:00 | 22 | 16 | 78 | 30.35 | SSW | 1 | 0.00 |
| 4 | 11/25 | 21:00 | 23 | 15 | 74 | 30.35 | SSW | 0 | 0.00 |
| 5 | 11/25 | 20:00 | 24 | 15 | 70 | 30.34 | SSW | 1 | 0.00 |
| 6 | 11/25 | 19:00 | 26 | 15 | 63 | 30.33 | SSW | 2 | 0.00 |
| 7 | 11/25 | 18:00 | 27 | 14 | 58 | 30.31 | WSW | 2 | 0.00 |
| 8 | 11/25 | 17:00 | 30 | 14 | 51 | 30.27 | NNW | 1 | 0.00 |
| 9 | 11/25 | 16:00 | 32 | 14 | 48 | 30.25 | WSW | 5 | 0.00 |
| 10 | 11/25 | 15:00 | 33 | 14 | 46 | 30.23 | SSW | 6 | 0.00 |
| 11 | 11/25 | 14:00 | 33 | 16 | 50 | 30.22 | SW | 6 | 0.00 |
| 12 | 11/25 | 13:00 | 31 | 16 | 54 | 30.23 | S | 4 | 0.00 |
| 13 | 11/25 | 12:00 | 28 | 13 | 54 | 30.25 | SW | 7 | 0.00 |
| 14 | 11/25 | 11:00 | 26 | 12 | 55 | 30.25 | SSW | 9 | 0.00 |
| 15 | 11/25 | 10:00 | 23 | 8 | 54 | 30.26 | WSW | 7 | 0.00 |
| 16 | 11/25 | 09:00 | 21 | 7 | 55 | 30.22 | SSW | 6 | 0.00 |
| 17 | 11/25 | 08:00 | 18 | 5 | 58 | 30.18 | SW | 9 | 0.00 |
| 18 | 11/25 | 07:00 | 17 | 4 | 58 | 30.13 | W | 7 | 0.00 |
| 19 | 11/25 | 06:00 | 17 | 3 | 55 | 30.10 | SW | 4 | 0.00 |
| 20 | 11/25 | 05:00 | 17 | 3 | 55 | 30.08 | SSW | 8 | 0.00 |
| 21 | 11/25 | 04:00 | 17 | 3 | 55 | 30.04 | W | 5 | 0.00 |
| 22 | 11/25 | 03:00 | 17 | 2 | 52 | 30.01 | S | 7 | 0.00 |
| 23 | 11/25 | 02:00 | 18 | 2 | 49 | 29.99 | SSW | 5 | 0.00 |
| 24 | 11/25 | 01:00 | 18 | 1 | 47 | 29.96 | WSW | 7 | 0.00 |